Time,TemperatureF,DewpointF,PressureIn,WindDirection,WindDirectionDegrees,WindSpeedMPH,WindSpeedGustMPH,Humidity,HourlyPrecipIn,Conditions,Clouds,dailyrainin,SoftwareType,DateUTC
2013-04-24 00:12:00,48.6,46.0,29.88,SSW,197,6.0,10.0,92,0.00,,,0.00,weatherlink.com 1.10,2013-04-24 07:12:00,
2013-04-24 00:27:00,48.5,46.0,29.88,SSE,148,7.0,10.0,92,0.00,,,0.00,weatherlink.com 1.10,2013-04-24 07:27:00,
2013-04-24 00:42:00,48.5,46.0,29.89,SSW,193,8.0,10.0,92,0.00,,,0.00,weatherlink.com 1.10,2013-04-24 07:42:00,
2013-04-24 00:57:00,48.3,46.0,29.89,SE,144,5.0,9.0,92,0.00,,,0.00,weatherlink.com 1.10,2013-04-24 07:57:00,
2013-04-24 01:12:00,48.3,46.0,29.88,South,186,5.0,9.0,92,0.00,,,0.00,weatherlink.com 1.10,2013-04-24 08:12:00,
2013-04-24 01:27:00,48.2,46.0,29.88,SSW,195,3.0,8.0,92,0.00,,,0.00,weatherlink.com 1.10,2013-04-24 08:27:00,
2013-04-24 01:43:00,48.3,46.0,29.87,SSW,193,3.0,8.0,92,0.00,,,0.00,weatherlink.com 1.10,2013-04-24 08:43:00,
2013-04-24 01:58:00,48.3,46.0,29.87,SSE,163,3.0,7.0,92,0.00,,,0.00,weatherlink.com 1.10,2013-04-24 08:58:00,
2013-04-24 02:13:00,48.3,46.0,29.87,SW,231,2.0,7.0,92,0.00,,,0.00,weatherlink.com 1.10,2013-04-24 09:13:00,
2013-04-24 02:28:00,48.2,46.0,29.86,SW,215,6.0,7.0,92,0.00,,,0.00,weatherlink.com 1.10,2013-04-24 09:28:00,
2013-04-24 02:43:00,48.0,46.0,29.85,SSE,159,5.0,8.0,93,0.00,,,0.00,weatherlink.com 1.10,2013-04-24 09:43:00,
2013-04-24 02:58:00,48.0,46.0,29.84,South,190,5.0,7.0,93,0.00,,,0.00,weatherlink.com 1.10,2013-04-24 09:58:00,
2013-04-24 03:13:00,48.0,46.0,29.84,SSE,148,3.0,6.0,93,0.00,,,0.00,weatherlink.com 1.10,2013-04-24 10:13:00,
2013-04-24 03:28:00,48.0,46.0,29.84,SW,214,4.0,8.0,93,0.00,,,0.00,weatherlink.com 1.10,2013-04-24 10:28:00,
2013-04-24 03:43:00,48.1,46.0,29.84,SE,146,3.0,7.0,93,0.00,,,0.00,weatherlink.com 1.10,2013-04-24 10:43:00,
2013-04-24 03:58:00,48.4,47.0,29.84,SE,125,3.0,5.0,93,0.00,,,0.00,weatherlink.com 1.10,2013-04-24 10:58:00,
2013-04-24 04:13:00,48.3,46.0,29.84,SSW,200,2.0,6.0,93,0.00,,,0.00,weatherlink.com 1.10,2013-04-24 11:13:00,
2013-04-24 04:28:00,48.1,46.0,29.83,South,190,4.0,4.0,93,0.00,,,0.00,weatherlink.com 1.10,2013-04-24 11:28:00,
2013-04-24 04:43:00,48.0,46.0,29.83,SSW,197,1.0,4.0,93,0.00,,,0.00,weatherlink.com 1.10,2013-04-24 11:43:00,
2013-04-24 04:58:00,48.0,46.0,29.83,SSW,210,1.0,4.0,93,0.00,,,0.00,weatherlink.com 1.10,2013-04-24 11:58:00,
2013-04-24 05:13:00,48.0,46.0,29.83,South,181,1.0,5.0,93,0.00,,,0.00,weatherlink.com 1.10,2013-04-24 12:13:00,
2013-04-24 05:28:00,47.7,46.0,29.83,ESE,111,0.0,4.0,93,0.00,,,0.00,weatherlink.com 1.10,2013-04-24 12:28:00,
2013-04-24 05:43:00,47.8,46.0,29.83,SE,146,0.0,3.0,94,0.00,,,0.00,weatherlink.com 1.10,2013-04-24 12:43:00,
2013-04-24 05:58:00,47.9,46.0,29.84,SW,228,0.0,3.0,94,0.00,,,0.00,weatherlink.com 1.10,2013-04-24 12:58:00,
2013-04-24 06:13:00,48.0,46.0,29.84,SE,125,0.0,2.0,94,0.00,,,0.00,weatherlink.com 1.10,2013-04-24 13:13:00,
2013-04-24 06:28:00,48.0,46.0,29.84,SE,139,2.0,3.0,94,0.00,,,0.00,weatherlink.com 1.10,2013-04-24 13:28:00,
2013-04-24 06:43:00,48.0,46.0,29.84,SSW,198,3.0,6.0,94,0.00,,,0.00,weatherlink.com 1.10,2013-04-24 13:43:00,
2013-04-24 06:58:00,48.3,47.0,29.84,SE,145,1.0,5.0,94,0.00,,,0.00,weatherlink.com 1.10,2013-04-24 13:58:00,
2013-04-24 07:13:00,48.5,47.0,29.84,WSW,255,2.0,6.0,94,0.00,,,0.00,weatherlink.com 1.10,2013-04-24 14:13:00,
2013-04-24 07:28:00,48.7,47.0,29.85,SSW,203,1.0,6.0,94,0.00,,,0.00,weatherlink.com 1.10,2013-04-24 14:28:00,
2013-04-24 07:43:00,49.0,47.0,29.86,WSW,257,4.0,7.0,94,0.00,,,0.00,weatherlink.com 1.10,2013-04-24 14:43:00,
2013-04-24 07:58:00,49.3,47.0,29.86,South,175,1.0,7.0,93,0.00,,,0.00,weatherlink.com 1.10,2013-04-24 14:58:00,
2013-04-24 08:13:00,49.7,48.0,29.86,WSW,252,3.0,7.0,93,0.00,,,0.00,weatherlink.com 1.10,2013-04-24 15:13:00,
2013-04-24 08:28:00,50.0,48.0,29.86,SW,214,3.0,7.0,93,0.00,,,0.00,weatherlink.com 1.10,2013-04-24 15:28:00,
2013-04-24 08:43:00,50.6,48.0,29.87,WSW,238,6.0,8.0,91,0.00,,,0.00,weatherlink.com 1.10,2013-04-24 15:43:00,
2013-04-24 08:58:00,50.2,48.0,29.87,South,187,4.0,8.0,91,0.00,,,0.00,weatherlink.com 1.10,2013-04-24 15:58:00,
2013-04-24 09:13:00,49.7,47.0,29.87,SSW,203,3.0,9.0,91,0.00,,,0.00,weatherlink.com 1.10,2013-04-24 16:13:00,
2013-04-24 09:28:00,49.9,47.0,29.87,SW,226,6.0,9.0,91,0.00,,,0.00,weatherlink.com 1.10,2013-04-24 16:28:00,
2013-04-24 09:43:00,50.4,47.0,29.88,SSE,153,7.0,11.0,89,0.00,,,0.00,weatherlink.com 1.10,2013-04-24 16:43:00,
2013-04-24 09:58:00,50.6,47.0,29.88,SSW,212,8.0,12.0,88,0.00,,,0.00,weatherlink.com 1.10,2013-04-24 16:58:00,
2013-04-24 10:13:00,51.2,47.0,29.88,SSW,195,7.0,11.0,86,0.00,,,0.00,weatherlink.com 1.10,2013-04-24 17:13:00,
2013-04-24 10:28:00,51.6,47.0,29.88,SSW,203,7.0,11.0,85,0.00,,,0.00,weatherlink.com 1.10,2013-04-24 17:28:00,
2013-04-24 10:45:00,52.4,48.0,29.89,SE,146,7.0,12.0,85,0.00,,,0.00,weatherlink.com 1.10,2013-04-24 17:45:00,
2013-04-24 10:59:00,53.6,48.0,29.89,SW,236,15.0,17.0,81,0.00,,,0.00,weatherlink.com 1.10,2013-04-24 17:59:00,
2013-04-24 11:14:00,54.1,48.0,29.89,SSW,204,10.0,13.0,80,0.00,,,0.00,weatherlink.com 1.10,2013-04-24 18:14:00,
2013-04-24 11:29:00,54.4,48.0,29.89,South,191,6.0,14.0,79,0.00,,,0.00,weatherlink.com 1.10,2013-04-24 18:29:00,
2013-04-24 11:44:00,55.5,48.0,29.89,South,179,6.0,13.0,77,0.00,,,0.00,weatherlink.com 1.10,2013-04-24 18:44:00,
2013-04-24 11:59:00,56.0,48.0,29.89,SSE,165,9.0,9.0,75,0.00,,,0.00,weatherlink.com 1.10,2013-04-24 18:59:00,
2013-04-24 12:14:00,55.6,47.0,29.89,SSW,211,8.0,13.0,74,0.00,,,0.00,weatherlink.com 1.10,2013-04-24 19:14:00,
2013-04-24 12:29:00,55.9,48.0,29.89,SSW,194,6.0,14.0,74,0.00,,,0.00,weatherlink.com 1.10,2013-04-24 19:29:00,
2013-04-24 12:44:00,56.8,48.0,29.89,SSW,201,5.0,12.0,73,0.00,,,0.00,weatherlink.com 1.10,2013-04-24 19:44:00,
2013-04-24 12:59:00,57.2,48.0,29.89,SW,228,6.0,11.0,72,0.00,,,0.00,weatherlink.com 1.10,2013-04-24 19:59:00,
2013-04-24 13:14:00,57.2,48.0,29.89,SSW,200,4.0,11.0,72,0.00,,,0.00,weatherlink.com 1.10,2013-04-24 20:14:00,
2013-04-24 13:29:00,57.5,48.0,29.89,SW,215,7.0,10.0,71,0.00,,,0.00,weatherlink.com 1.10,2013-04-24 20:29:00,
2013-04-24 13:44:00,57.9,49.0,29.89,SSE,148,4.0,13.0,71,0.00,,,0.00,weatherlink.com 1.10,2013-04-24 20:44:00,
2013-04-24 13:59:00,58.1,48.0,29.88,SSW,211,11.0,14.0,70,0.00,,,0.00,weatherlink.com 1.10,2013-04-24 20:59:00,
2013-04-24 14:14:00,58.5,49.0,29.88,SW,215,6.0,14.0,70,0.00,,,0.00,weatherlink.com 1.10,2013-04-24 21:14:00,
2013-04-24 14:29:00,58.5,49.0,29.88,SSW,203,8.0,15.0,71,0.00,,,0.00,weatherlink.com 1.10,2013-04-24 21:29:00,
2013-04-24 14:44:00,59.1,49.0,29.88,SW,225,8.0,13.0,69,0.00,,,0.00,weatherlink.com 1.10,2013-04-24 21:44:00,
2013-04-24 14:59:00,59.0,50.0,29.88,SW,219,6.0,14.0,71,0.00,,,0.00,weatherlink.com 1.10,2013-04-24 21:59:00,
2013-04-24 15:14:00,58.6,50.0,29.87,South,176,7.0,15.0,72,0.00,,,0.00,weatherlink.com 1.10,2013-04-24 22:14:00,
2013-04-24 15:29:00,58.5,50.0,29.87,SSW,200,5.0,15.0,73,0.00,,,0.00,weatherlink.com 1.10,2013-04-24 22:29:00,
2013-04-24 15:44:00,59.2,49.0,29.87,SE,146,7.0,14.0,70,0.00,,,0.00,weatherlink.com 1.10,2013-04-24 22:44:00,
2013-04-24 15:59:00,59.0,50.0,29.87,South,186,11.0,15.0,72,0.00,,,0.00,weatherlink.com 1.10,2013-04-24 22:59:00,
2013-04-24 16:14:00,57.9,50.0,29.87,SSW,205,3.0,16.0,74,0.00,,,0.00,weatherlink.com 1.10,2013-04-24 23:14:00,
2013-04-24 16:29:00,57.8,50.0,29.86,SSW,209,11.0,21.0,74,0.00,,,0.00,weatherlink.com 1.10,2013-04-24 23:29:00,
2013-04-24 16:44:00,57.5,50.0,29.86,SSW,201,9.0,16.0,75,0.00,,,0.00,weatherlink.com 1.10,2013-04-24 23:44:00,
2013-04-24 16:59:00,57.5,49.0,29.86,SW,225,9.0,17.0,74,0.00,,,0.00,weatherlink.com 1.10,2013-04-24 23:59:00,
2013-04-24 17:14:00,57.8,50.0,29.86,SSW,207,14.0,16.0,75,0.00,,,0.00,weatherlink.com 1.10,2013-04-25 00:14:00,
2013-04-24 17:29:00,57.6,49.0,29.87,South,176,10.0,16.0,74,0.00,,,0.00,weatherlink.com 1.10,2013-04-25 00:29:00,
2013-04-24 18:14:00,56.4,50.0,29.88,SSW,205,7.0,19.0,78,0.00,,,0.00,weatherlink.com 1.10,2013-04-25 01:14:00,
2013-04-24 18:29:00,56.4,49.0,29.88,WSW,252,14.0,17.0,77,0.00,,,0.00,weatherlink.com 1.10,2013-04-25 01:29:00,
2013-04-24 18:44:00,55.8,49.0,29.88,SSW,201,7.0,18.0,79,0.00,,,0.00,weatherlink.com 1.10,2013-04-25 01:44:00,
2013-04-24 18:59:00,55.6,50.0,29.88,WSW,239,6.0,14.0,80,0.00,,,0.00,weatherlink.com 1.10,2013-04-25 01:59:00,
2013-04-24 19:14:00,55.1,49.0,29.89,WSW,239,6.0,15.0,80,0.00,,,0.00,weatherlink.com 1.10,2013-04-25 02:14:00,
2013-04-24 19:29:00,54.5,49.0,29.89,SSW,208,6.0,13.0,82,0.00,,,0.00,weatherlink.com 1.10,2013-04-25 02:29:00,
2013-04-24 19:44:00,53.9,49.0,29.89,SW,219,9.0,15.0,83,0.00,,,0.00,weatherlink.com 1.10,2013-04-25 02:44:00,
2013-04-24 20:00:00,53.4,49.0,29.90,WSW,255,9.0,12.0,84,0.00,,,0.00,weatherlink.com 1.10,2013-04-25 03:00:00,
2013-04-24 20:30:00,52.8,49.0,29.90,WSW,255,2.0,10.0,86,0.00,,,0.00,weatherlink.com 1.10,2013-04-25 03:30:00,
2013-04-24 20:45:00,52.8,49.0,29.91,SW,235,8.0,12.0,86,0.00,,,0.00,weatherlink.com 1.10,2013-04-25 03:45:00,
2013-04-24 21:00:00,52.8,49.0,29.92,SW,226,2.0,8.0,86,0.00,,,0.00,weatherlink.com 1.10,2013-04-25 04:00:00,
2013-04-24 21:15:00,52.8,49.0,29.92,WSW,246,4.0,9.0,86,0.00,,,0.00,weatherlink.com 1.10,2013-04-25 04:15:00,
2013-04-24 21:30:00,52.7,49.0,29.92,SW,223,7.0,10.0,86,0.00,,,0.00,weatherlink.com 1.10,2013-04-25 04:30:00,
2013-04-24 21:45:00,52.7,48.0,29.92,WSW,249,4.0,8.0,85,0.00,,,0.00,weatherlink.com 1.10,2013-04-25 04:45:00,
2013-04-24 22:00:00,52.8,48.0,29.93,West,264,4.0,10.0,85,0.00,,,0.00,weatherlink.com 1.10,2013-04-25 05:00:00,
2013-04-24 22:15:00,52.8,48.0,29.93,WSW,252,6.0,8.0,85,0.00,,,0.00,weatherlink.com 1.10,2013-04-25 05:15:00,
2013-04-24 22:30:00,52.8,49.0,29.94,SSE,155,5.0,9.0,86,0.00,,,0.00,weatherlink.com 1.10,2013-04-25 05:30:00,
2013-04-24 22:45:00,52.6,49.0,29.93,SSW,203,1.0,6.0,86,0.00,,,0.00,weatherlink.com 1.10,2013-04-25 05:45:00,
2013-04-24 23:00:00,52.5,49.0,29.94,SSW,193,3.0,5.0,86,0.00,,,0.00,weatherlink.com 1.10,2013-04-25 06:00:00,
2013-04-24 23:15:00,52.5,49.0,29.94,SSW,206,3.0,7.0,87,0.00,,,0.00,weatherlink.com 1.10,2013-04-25 06:15:00,
2013-04-24 23:30:00,52.6,49.0,29.93,SSW,205,4.0,8.0,86,0.00,,,0.00,weatherlink.com 1.10,2013-04-25 06:30:00,
2013-04-24 23:45:00,52.6,49.0,29.94,SW,225,5.0,9.0,86,0.00,,,0.00,weatherlink.com 1.10,2013-04-25 06:45:00,